Terminal Aerodrome Forecast
Issued by NWS

Home | Current Version | Previous Version | Text Only | Print | Product List | Glossary On
Versions: 1 2 3 4 5 6 7 8 9 10 11 12 13
000
FTUS46 KPDT 021726
TAFALW
TAF
KALW 021726Z 0218/0318 21015KT P6SM -SHRA BKN050 OVC070
     FM022100 25012G20KT P6SM VCSH BKN060 OVC100
     FM030000 25010KT P6SM BKN070 OVC100
     FM030300 21009KT P6SM BKN100 BKN200
     FM030900 18009KT P6SM SCT200=

USA.gov is the U.S. government's official web portal to all federal, state and local government web resources and services.